Bloomington, IL (61704)

9:07 AM CDT on May 27, 2015 (GMT -0500)
Vap0rz Garage | | Change Station
CLOSE
Current Station
Personal Weather Station
Location: Bloomington, IL
Elevation: 853 ft
Nearby Weather Stations

Elev 853 ft 40.49 °N, 88.96 °W | Updated 22 minutes ago

Overcast
Overcast
68.0 °F
Feels Like 68.0 °F
N
10.0
Wind Variable Wind from WSW
Gusts 13.0 mph

Today
High -- | Low -- °F
--% Chance of Precip.
Yesterday
High -- | Low -- °F
Precip. -- in
5:30 AM 8:16 PM
Waxing Gibbous, 67% visible
Pressure 30.01 in
Visibility 10.0 miles
Clouds Mostly Cloudy 1200 ft
Mostly Cloudy 1600 ft
Overcast 2600 ft
Dew Point 64 °F
Humidity 88%
Rainfall 0.02 in
Snow Depth Not available.
UV 1 out of 12
Pollen 9.20 out of 12
Air Quality Not available.
Flu Activity Sporadic
METAR KBMI 271356Z 25011KT 10SM BKN012 BKN016 OVC026 20/18 A3003 RMK AO2 T02000183 BKN V OVC SLP161

More Conditions Fewer Conditions

Pressure 30.01 in
Visibility 10.0 miles
Clouds Mostly Cloudy 1200 ft
Mostly Cloudy 1600 ft
Overcast 2600 ft
Dew Point 64 °F
Humidity 88%
Rainfall 0.02 in
Snow Depth Not available.
UV 1 out of 12
Pollen 9.20 out of 12
Air Quality Not available.
Flu Activity Sporadic
METAR KBMI 271356Z 25011KT 10SM BKN012 BKN016 OVC026 20/18 A3003 RMK AO2 T02000183 BKN V OVC SLP161

More Conditions Fewer Conditions

10-Day Weather Forecast

Almanac

Astronomy

May. 27, 2015 Rise Set
Actual Time
Civil Twilight
Nautical Twilight
Astronomical Twilight
Moon
Length of Visible Light
Length of Day
Tomorrow will be .
, % of the Moon is Illuminated

Today's Extremes

State Highs State Lows

Community

WunderPhotos

Upload Photos

1,824,673 photos uploaded!

WunderBlogs® & News

Nearby

Air Quality

  Air Quality AQ Index Pollutant
Not available.

Snow Depth

Station Depth Elevation

Earthquake Activity

City Distance Mag. Time & Date
Minimum magnitude displayed is 2.5.

Coastal Water Temperatures

Place Temperature

Stations

Nearby Weather Stations

Station Location Temp. Windchill Dew Point Humidity Wind Precip. Elev Updated Type